Weather at Vängsö Airport

Public forecast

Using degrees Celsius for public forecast. Weather courtesy of forecast.io.

Closest aviation weather report (METAR) to Vängsö Airport

Closest report is Stockholm Skavsta Airport, 20.9 nm (38.7 km) SSW.

2022/11/26 17:50 (retrieved 26 minutes ago)

ESKN 261750Z 33004KT 1700 BR VV002 02/01 Q1028

Closest aviation forecast (TAF) to Vängsö Airport

Closest forecast is Stockholm Skavsta Airport, 20.9 nm (38.7 km) SSW.

2022/11/26 18:00 (retrieved 16 minutes ago)

TAF ESKN 261730Z 2618/2718 01004KT 0300 FG VV002 PROB40 2618/2710 3000 BR BECMG 2710/2712 5000 NSW TEMPO 2712/2718 2000 DZ BR BKN005